Time;durP1;ratioP1;P1;durP2;ratioP2;P2;SDS_P1;SDS_P2;PMS_P1;PMS_P2;Temp;Humidity;BMP_temperature;BMP_pressure;BME280_temperature;BME280_humidity;BME280_pressure;Samples;Min_cycle;Max_cycle;Signal;HPM_P1;HPM_P2
2022/04/06 00:01:40;;;;;;;;;;;12.80;97.50;;;;;;5083562;28;19916;-79
2022/04/06 00:04:05;;;;;;;;;;;12.80;97.20;;;;;;5082274;28;20585;-78
2022/04/06 00:06:31;;;;;;;;;;;12.80;97.30;;;;;;5081710;28;20443;-78
2022/04/06 00:08:57;;;;;;;;;;;12.80;97.30;;;;;;5085084;28;19915;-78
2022/04/06 00:11:23;;;;;;;;;;;12.80;97.50;;;;;;5084354;28;19915;-78
2022/04/06 00:13:49;;;;;;;;;;;12.70;97.50;;;;;;5088767;28;20376;-78
2022/04/06 00:16:15;;;;;;;;;;;12.70;97.70;;;;;;5088457;28;19954;-78
2022/04/06 00:18:40;;;;;;;;;;;12.70;97.80;;;;;;5089111;28;19916;-78
2022/04/06 00:21:06;;;;;;;;;;;12.70;97.90;;;;;;5091734;28;20367;-78
2022/04/06 00:23:32;;;;;;;;;;;12.80;97.70;;;;;;5089786;28;20342;-78
2022/04/06 00:25:57;;;;;;;;;;;12.70;97.70;;;;;;5088649;28;19908;-77
2022/04/06 00:28:23;;;;;;;;;;;12.70;97.70;;;;;;5088846;28;19911;-78
2022/04/06 00:30:49;;;;;;;;;;;12.70;97.80;;;;;;5088491;28;19908;-78
2022/04/06 00:33:14;;;;;;;;;;;12.70;97.60;;;;;;5090486;28;19915;-78
2022/04/06 00:35:40;;;;;;;;;;;12.70;97.70;;;;;;5090815;28;20035;-78
2022/04/06 00:38:06;;;;;;;;;;;12.60;98.00;;;;;;5088497;28;19912;-78
2022/04/06 00:40:33;;;;;;;;;;;12.60;98.00;;;;;;5088534;28;19919;-78
2022/04/06 00:42:59;;;;;;;;;;;12.50;98.70;;;;;;5088861;28;19908;-78
2022/04/06 00:45:25;;;;;;;;;;;12.50;98.50;;;;;;5088850;28;20279;-78
2022/04/06 00:47:51;;;;;;;;;;;12.50;98.40;;;;;;5091912;28;20553;-77
2022/04/06 00:50:17;;;;;;;;;;;12.50;98.30;;;;;;5070519;28;20055;-77
2022/04/06 00:52:43;;;;;;;;;;;12.50;98.50;;;;;;5088114;28;19997;-77
2022/04/06 00:55:09;;;;;;;;;;;12.60;98.30;;;;;;5090252;28;19915;-79
2022/04/06 00:57:35;;;;;;;;;;;12.60;98.50;;;;;;5088956;28;19919;-78
2022/04/06 01:00:02;;;;;;;;;;;12.70;98.10;;;;;;5090796;28;19954;-78
2022/04/06 01:02:27;;;;;;;;;;;12.70;98.20;;;;;;5089434;28;20265;-78
2022/04/06 01:04:53;;;;;;;;;;;12.60;98.30;;;;;;5089323;28;19918;-78
2022/04/06 01:07:19;;;;;;;;;;;12.60;98.60;;;;;;5074503;28;19908;-78
2022/04/06 01:09:45;;;;;;;;;;;12.60;98.50;;;;;;5092587;28;19912;-78
2022/04/06 01:12:12;;;;;;;;;;;12.60;98.70;;;;;;5094763;28;19995;-78
2022/04/06 01:14:38;;;;;;;;;;;12.50;98.80;;;;;;5093348;28;19904;-78
2022/04/06 01:17:04;;;;;;;;;;;12.60;98.60;;;;;;5092242;28;19961;-78
2022/04/06 01:19:33;;;;;;;;;;;12.60;99.00;;;;;;5092120;28;19931;-78
2022/04/06 01:22:00;;;;;;;;;;;12.60;98.70;;;;;;5092369;28;19908;-78
2022/04/06 01:24:25;;;;;;;;;;;12.60;98.60;;;;;;5092301;28;20016;-78
2022/04/06 01:26:51;;;;;;;;;;;12.50;98.90;;;;;;5095440;28;19946;-78
2022/04/06 01:29:17;;;;;;;;;;;12.50;98.90;;;;;;5091901;28;19965;-78
2022/04/06 01:31:42;;;;;;;;;;;12.50;99.00;;;;;;5092022;28;19915;-78
2022/04/06 01:34:08;;;;;;;;;;;12.40;99.10;;;;;;5093177;28;20048;-78
2022/04/06 01:36:33;;;;;;;;;;;12.40;99.50;;;;;;5091859;28;19908;-78
2022/04/06 01:38:59;;;;;;;;;;;12.40;99.60;;;;;;5095030;28;19912;-78
2022/04/06 01:41:31;;;;;;;;;;;12.40;99.70;;;;;;5092465;28;19905;-78
2022/04/06 01:43:57;;;;;;;;;;;12.30;99.90;;;;;;5091311;28;19916;-78
2022/04/06 01:46:22;;;;;;;;;;;12.20;99.90;;;;;;5092103;28;20002;-78
2022/04/06 01:54:16;;;;;;;;;;;12.10;99.90;;;;;;5093353;28;20013;-78
2022/04/06 01:56:42;;;;;;;;;;;12.20;99.90;;;;;;5093649;28;19962;-79
2022/04/06 01:59:07;;;;;;;;;;;12.10;99.90;;;;;;5090901;28;19926;-79
2022/04/06 02:01:36;;;;;;;;;;;12.10;99.90;;;;;;5091714;28;19908;-78
2022/04/06 02:04:06;;;;;;;;;;;12.10;99.90;;;;;;5091277;28;19931;-78
2022/04/06 02:06:32;;;;;;;;;;;12.20;99.90;;;;;;5091281;28;19959;-79
2022/04/06 02:08:57;;;;;;;;;;;12.20;99.90;;;;;;5094709;28;19950;-78
2022/04/06 02:11:23;;;;;;;;;;;12.10;99.90;;;;;;5093049;28;20428;-78
2022/04/06 02:13:49;;;;;;;;;;;12.10;99.90;;;;;;5091313;28;19954;-78
2022/04/06 02:16:14;;;;;;;;;;;12.10;99.90;;;;;;5089920;28;19908;-78
2022/04/06 02:18:40;;;;;;;;;;;12.00;99.90;;;;;;5090928;28;19920;-79
2022/04/06 02:21:05;;;;;;;;;;;12.10;99.90;;;;;;5093520;28;20016;-79
2022/04/06 02:23:31;;;;;;;;;;;12.10;99.90;;;;;;5091954;28;20443;-79
2022/04/06 02:25:56;;;;;;;;;;;12.10;99.90;;;;;;5090925;28;19931;-79
2022/04/06 02:28:22;;;;;;;;;;;12.00;99.90;;;;;;5091134;28;19908;-78
2022/04/06 02:30:47;;;;;;;;;;;12.00;99.90;;;;;;5090994;28;19966;-79
2022/04/06 02:33:13;;;;;;;;;;;12.00;99.90;;;;;;5092825;28;19908;-78
2022/04/06 02:35:38;;;;;;;;;;;12.10;99.90;;;;;;5092393;28;19911;-79
2022/04/06 02:38:04;;;;;;;;;;;12.00;99.90;;;;;;5090664;28;19916;-78
2022/04/06 02:40:32;;;;;;;;;;;11.90;99.90;;;;;;5090427;28;20004;-79
2022/04/06 02:42:58;;;;;;;;;;;12.00;99.90;;;;;;5090507;28;19908;-78
2022/04/06 02:45:23;;;;;;;;;;;11.90;99.90;;;;;;5091187;28;20022;-78
2022/04/06 02:47:49;;;;;;;;;;;11.90;99.90;;;;;;5093262;28;19904;-78
2022/04/06 02:50:15;;;;;;;;;;;11.90;99.90;;;;;;5090403;28;19950;-78
2022/04/06 02:52:41;;;;;;;;;;;11.90;99.90;;;;;;5090214;28;20017;-78
2022/04/06 02:55:09;;;;;;;;;;;11.90;99.90;;;;;;5090098;28;19912;-79
2022/04/06 02:57:34;;;;;;;;;;;11.90;99.90;;;;;;5090689;28;19916;-79
2022/04/06 03:00:00;;;;;;;;;;;11.90;99.90;;;;;;5091907;28;19923;-79
2022/04/06 03:02:26;;;;;;;;;;;12.00;99.90;;;;;;5090504;28;19954;-79
2022/04/06 03:04:51;;;;;;;;;;;11.90;99.90;;;;;;5090414;28;19981;-79
2022/04/06 03:07:18;;;;;;;;;;;11.80;99.90;;;;;;5090124;28;19916;-78
2022/04/06 03:09:44;;;;;;;;;;;11.80;99.90;;;;;;5089831;28;19908;-78
2022/04/06 03:12:09;;;;;;;;;;;11.70;99.90;;;;;;5092453;28;19962;-79
2022/04/06 03:14:35;;;;;;;;;;;11.60;99.90;;;;;;5072773;28;19904;-79
2022/04/06 03:17:00;;;;;;;;;;;11.70;99.90;;;;;;5089395;28;19987;-79
2022/04/06 03:19:26;;;;;;;;;;;11.70;99.90;;;;;;5090585;28;19916;-78
2022/04/06 03:21:52;;;;;;;;;;;11.70;99.90;;;;;;5089863;28;19908;-78
2022/04/06 03:24:17;;;;;;;;;;;11.70;99.90;;;;;;5091268;28;20384;-78
2022/04/06 03:26:43;;;;;;;;;;;11.70;99.90;;;;;;5091792;28;19904;-78
2022/04/06 03:29:08;;;;;;;;;;;11.70;99.90;;;;;;5089246;28;19908;-79
2022/04/06 03:31:34;;;;;;;;;;;11.60;99.90;;;;;;5090834;28;20379;-79
2022/04/06 03:34:00;;;;;;;;;;;11.50;99.90;;;;;;5089665;28;19916;-78
2022/04/06 03:36:26;;;;;;;;;;;11.60;99.90;;;;;;5074401;28;19908;-79
2022/04/06 03:38:51;;;;;;;;;;;11.60;99.90;;;;;;5092536;28;19935;-78
2022/04/06 03:41:17;;;;;;;;;;;11.50;99.90;;;;;;5089317;28;19908;-78
2022/04/06 03:43:42;;;;;;;;;;;11.50;99.90;;;;;;5089628;28;20291;-79
2022/04/06 03:46:08;;;;;;;;;;;11.50;99.90;;;;;;5089418;28;19919;-79
2022/04/06 03:48:34;;;;;;;;;;;11.50;99.90;;;;;;5089758;28;19912;-79
2022/04/06 03:50:59;;;;;;;;;;;11.50;99.90;;;;;;5092585;28;20349;-79
2022/04/06 03:53:25;;;;;;;;;;;11.50;99.90;;;;;;5089006;28;19922;-78
2022/04/06 03:55:50;;;;;;;;;;;11.50;99.90;;;;;;5089306;28;19912;-78
2022/04/06 03:58:16;;;;;;;;;;;11.40;99.90;;;;;;5089134;28;19912;-78
2022/04/06 04:00:42;;;;;;;;;;;11.40;99.90;;;;;;5089525;28;20377;-79
2022/04/06 04:03:07;;;;;;;;;;;11.40;99.90;;;;;;5091554;28;19910;-78
2022/04/06 04:05:33;;;;;;;;;;;11.30;99.90;;;;;;5090266;28;19995;-79
2022/04/06 04:07:58;;;;;;;;;;;11.30;99.90;;;;;;5088973;28;19947;-79
2022/04/06 04:10:24;;;;;;;;;;;11.20;99.90;;;;;;5090604;28;19908;-78
2022/04/06 04:12:50;;;;;;;;;;;11.20;99.90;;;;;;5089069;28;19916;-78
2022/04/06 04:15:15;;;;;;;;;;;11.30;99.90;;;;;;5090708;28;19935;-79
2022/04/06 04:17:41;;;;;;;;;;;11.30;99.90;;;;;;5091134;28;19900;-79
2022/04/06 04:20:07;;;;;;;;;;;11.40;99.90;;;;;;5088808;28;20372;-79
2022/04/06 04:22:32;;;;;;;;;;;11.30;99.90;;;;;;5088670;28;19912;-78
2022/04/06 04:24:58;;;;;;;;;;;11.20;99.90;;;;;;5089843;28;20382;-78
2022/04/06 04:27:24;;;;;;;;;;;11.10;99.90;;;;;;5089585;28;19954;-78
2022/04/06 04:29:49;;;;;;;;;;;11.10;99.90;;;;;;5091825;28;20092;-78
2022/04/06 04:32:16;;;;;;;;;;;11.10;99.90;;;;;;5089008;28;20302;-79
2022/04/06 04:34:42;;;;;;;;;;;11.00;99.90;;;;;;5089186;28;19915;-79
2022/04/06 04:37:08;;;;;;;;;;;10.90;99.90;;;;;;5088505;28;19908;-78
2022/04/06 04:39:33;;;;;;;;;;;11.20;99.90;;;;;;5089348;28;19924;-79
2022/04/06 04:41:59;;;;;;;;;;;11.30;99.90;;;;;;5096225;28;20375;-79
2022/04/06 04:44:24;;;;;;;;;;;11.40;99.50;;;;;;5093056;28;19927;-79
2022/04/06 04:46:50;;;;;;;;;;;11.40;99.20;;;;;;5092708;28;19947;-80
2022/04/06 04:49:16;;;;;;;;;;;11.50;99.30;;;;;;5092568;28;19930;-79
2022/04/06 04:51:41;;;;;;;;;;;11.40;99.60;;;;;;5092813;28;19908;-79
2022/04/06 04:54:07;;;;;;;;;;;11.40;99.10;;;;;;5095125;28;19911;-79
2022/04/06 04:56:33;;;;;;;;;;;11.40;99.20;;;;;;5093634;28;19904;-79
2022/04/06 04:58:59;;;;;;;;;;;11.30;99.60;;;;;;5092906;28;19923;-74
2022/04/06 05:01:25;;;;;;;;;;;11.30;99.90;;;;;;5108265;28;19916;-76
2022/04/06 05:03:51;;;;;;;;;;;11.20;99.90;;;;;;5092162;28;19915;-76
2022/04/06 05:06:17;;;;;;;;;;;11.20;99.90;;;;;;5094166;28;19908;-77
2022/04/06 05:08:42;;;;;;;;;;;11.10;99.90;;;;;;5094227;28;19910;-76
2022/04/06 05:11:08;;;;;;;;;;;11.20;99.90;;;;;;5092463;28;19908;-71
2022/04/06 05:13:33;;;;;;;;;;;11.20;99.90;;;;;;5092273;28;19912;-76
2022/04/06 05:15:59;;;;;;;;;;;11.10;99.90;;;;;;5092374;28;19915;-77
2022/04/06 05:18:26;;;;;;;;;;;11.20;99.90;;;;;;5092529;28;19923;-76
2022/04/06 05:20:53;;;;;;;;;;;11.20;99.90;;;;;;5095422;28;19956;-76
2022/04/06 05:23:18;;;;;;;;;;;11.20;99.90;;;;;;5091710;28;20028;-76
2022/04/06 05:25:44;;;;;;;;;;;10.80;99.90;;;;;;5092217;28;19908;-75
2022/04/06 05:28:10;;;;;;;;;;;10.60;99.90;;;;;;5092020;28;19923;-75
2022/04/06 05:30:38;;;;;;;;;;;10.40;99.90;;;;;;5092089;28;19912;-76
2022/04/06 05:33:03;;;;;;;;;;;10.40;99.90;;;;;;5094650;28;19994;-76
2022/04/06 05:35:29;;;;;;;;;;;10.20;99.90;;;;;;5092273;28;20046;-75
2022/04/06 05:37:56;;;;;;;;;;;10.20;99.90;;;;;;5091722;28;19919;-75
2022/04/06 05:40:21;;;;;;;;;;;10.10;99.90;;;;;;5091748;28;19927;-75
2022/04/06 05:42:47;;;;;;;;;;;10.10;99.90;;;;;;5092109;28;19908;-75
2022/04/06 05:45:13;;;;;;;;;;;10.10;99.90;;;;;;5093921;28;19904;-78
2022/04/06 05:47:38;;;;;;;;;;;10.10;99.90;;;;;;5092796;28;19904;-76
2022/04/06 05:50:05;;;;;;;;;;;10.10;99.90;;;;;;5091275;28;19915;-77
2022/04/06 05:52:31;;;;;;;;;;;10.20;99.90;;;;;;5091069;28;20001;-76
2022/04/06 05:54:57;;;;;;;;;;;10.20;99.90;;;;;;5091904;28;20022;-77
2022/04/06 05:57:22;;;;;;;;;;;10.30;99.90;;;;;;5092022;28;19970;-76
2022/04/06 05:59:48;;;;;;;;;;;10.40;99.90;;;;;;5094301;28;19920;-76
2022/04/06 06:02:14;;;;;;;;;;;10.40;99.90;;;;;;5091331;28;19918;-76
2022/04/06 06:04:40;;;;;;;;;;;10.50;99.90;;;;;;5091105;28;20276;-77
2022/04/06 06:07:06;;;;;;;;;;;10.60;99.90;;;;;;5091355;28;20253;-77
2022/04/06 06:09:32;;;;;;;;;;;10.60;99.90;;;;;;5091523;28;20352;-76
2022/04/06 06:11:58;;;;;;;;;;;10.70;99.90;;;;;;5094502;28;19956;-77
2022/04/06 06:14:24;;;;;;;;;;;10.70;99.90;;;;;;5092824;28;19908;-77
2022/04/06 06:16:50;;;;;;;;;;;10.70;99.90;;;;;;5090960;28;19912;-77
2022/04/06 06:19:18;;;;;;;;;;;10.70;99.90;;;;;;5090798;28;19916;-76
2022/04/06 06:21:44;;;;;;;;;;;10.70;99.90;;;;;;5090735;28;20366;-77
2022/04/06 06:24:10;;;;;;;;;;;10.70;99.90;;;;;;5093201;28;19908;-77
2022/04/06 06:26:36;;;;;;;;;;;10.70;99.90;;;;;;5091958;28;19903;-76
2022/04/06 06:29:02;;;;;;;;;;;10.80;99.90;;;;;;5090613;28;20406;-77
2022/04/06 06:31:29;;;;;;;;;;;10.80;99.90;;;;;;5091062;28;19915;-77
2022/04/06 06:33:58;;;;;;;;;;;10.80;99.90;;;;;;5090117;28;19908;-76
2022/04/06 06:36:23;;;;;;;;;;;10.80;99.90;;;;;;5092068;28;19915;-76
2022/04/06 06:38:52;;;;;;;;;;;10.80;99.90;;;;;;5093478;28;19908;-76
2022/04/06 06:41:18;;;;;;;;;;;10.70;99.90;;;;;;5090645;28;19909;-77
2022/04/06 06:43:48;;;;;;;;;;;10.70;99.90;;;;;;5090577;28;19931;-77
2022/04/06 06:46:14;;;;;;;;;;;10.80;99.90;;;;;;5090791;28;19912;-77
2022/04/06 06:48:40;;;;;;;;;;;10.80;99.90;;;;;;5090131;28;19912;-77
2022/04/06 06:51:05;;;;;;;;;;;11.00;99.90;;;;;;5092616;28;19958;-76
2022/04/06 06:53:31;;;;;;;;;;;11.00;99.90;;;;;;5091114;28;19916;-77
2022/04/06 06:55:57;;;;;;;;;;;11.10;99.90;;;;;;5090118;28;19908;-77
2022/04/06 06:58:22;;;;;;;;;;;11.10;99.90;;;;;;5090591;28;19916;-76
2022/04/06 07:00:48;;;;;;;;;;;11.20;99.90;;;;;;5090440;28;19908;-76
2022/04/06 07:03:13;;;;;;;;;;;11.20;99.90;;;;;;5091427;28;19908;-74
2022/04/06 07:05:39;;;;;;;;;;;11.20;99.90;;;;;;5091429;28;20283;-75
2022/04/06 07:08:05;;;;;;;;;;;11.20;99.90;;;;;;5089922;28;20403;-75
2022/04/06 07:10:31;;;;;;;;;;;11.10;99.90;;;;;;5089851;28;19912;-75
2022/04/06 07:12:57;;;;;;;;;;;11.10;99.90;;;;;;5090083;28;19919;-76
2022/04/06 07:15:23;;;;;;;;;;;11.10;99.90;;;;;;5090890;28;19908;-73
2022/04/06 07:17:55;;;;;;;;;;;11.20;99.90;;;;;;5092681;28;19904;-76
2022/04/06 07:20:22;;;;;;;;;;;11.20;99.90;;;;;;5090036;28;19920;-75
2022/04/06 07:22:47;;;;;;;;;;;11.10;99.90;;;;;;5089763;28;20372;-75
2022/04/06 07:25:13;;;;;;;;;;;11.20;99.90;;;;;;5089764;28;19915;-75
2022/04/06 07:27:39;;;;;;;;;;;11.20;99.90;;;;;;5090392;28;20441;-75
2022/04/06 07:30:05;;;;;;;;;;;11.30;99.90;;;;;;5092292;28;20318;-75
2022/04/06 07:32:31;;;;;;;;;;;11.40;99.90;;;;;;5091777;28;19904;-75
2022/04/06 07:34:57;;;;;;;;;;;11.50;99.90;;;;;;5089496;28;19908;-78
2022/04/06 07:37:23;;;;;;;;;;;11.50;99.90;;;;;;5087696;28;19915;-75
2022/04/06 07:39:48;;;;;;;;;;;11.60;99.90;;;;;;5081044;28;20018;-75
2022/04/06 07:42:14;;;;;;;;;;;11.70;99.90;;;;;;5081532;28;19930;-75
2022/04/06 07:44:40;;;;;;;;;;;11.70;99.90;;;;;;5081572;28;19904;-75
2022/04/06 07:47:05;;;;;;;;;;;11.70;99.90;;;;;;5087730;28;20040;-75
2022/04/06 07:49:31;;;;;;;;;;;11.70;99.90;;;;;;5084620;28;20395;-75
2022/04/06 07:51:56;;;;;;;;;;;11.70;99.90;;;;;;5076500;28;19915;-75
2022/04/06 07:54:22;;;;;;;;;;;11.70;99.90;;;;;;5073510;28;19920;-76
2022/04/06 07:56:48;;;;;;;;;;;11.80;99.90;;;;;;5076921;28;20288;-75
2022/04/06 07:59:13;;;;;;;;;;;11.80;99.90;;;;;;5077531;28;20022;-74
2022/04/06 08:01:39;;;;;;;;;;;11.80;99.90;;;;;;5077251;28;19912;-75
2022/04/06 08:04:04;;;;;;;;;;;11.90;99.90;;;;;;5077495;28;19908;-75
2022/04/06 08:06:30;;;;;;;;;;;11.90;99.90;;;;;;5073472;28;20388;-75
2022/04/06 08:08:56;;;;;;;;;;;11.80;99.90;;;;;;5076670;28;19912;-75
2022/04/06 08:11:21;;;;;;;;;;;11.90;99.90;;;;;;5077292;28;19908;-75
2022/04/06 08:13:47;;;;;;;;;;;11.90;99.90;;;;;;5077276;28;19947;-75
2022/04/06 08:16:13;;;;;;;;;;;11.90;99.90;;;;;;5076860;28;19916;-74
2022/04/06 08:18:38;;;;;;;;;;;11.90;99.90;;;;;;5074520;28;19912;-74
2022/04/06 08:21:05;;;;;;;;;;;12.00;99.90;;;;;;5091564;28;19908;-75
2022/04/06 08:23:31;;;;;;;;;;;12.10;99.90;;;;;;5091212;28;19912;-75
2022/04/06 08:25:56;;;;;;;;;;;12.10;99.90;;;;;;5070920;28;20396;-75
2022/04/06 08:28:22;;;;;;;;;;;12.10;99.90;;;;;;5088556;28;19915;-75
2022/04/06 08:30:48;;;;;;;;;;;12.10;99.90;;;;;;5088886;28;20377;-75
2022/04/06 08:33:14;;;;;;;;;;;12.10;99.90;;;;;;5091135;28;19904;-75
2022/04/06 08:35:40;;;;;;;;;;;12.20;99.90;;;;;;5090526;28;19904;-75
2022/04/06 08:38:06;;;;;;;;;;;12.30;99.90;;;;;;5088538;28;19908;-75
2022/04/06 08:40:33;;;;;;;;;;;12.40;99.90;;;;;;5088582;28;19908;-75
2022/04/06 08:42:59;;;;;;;;;;;12.40;99.90;;;;;;5088478;28;19908;-75
2022/04/06 08:45:24;;;;;;;;;;;12.50;99.90;;;;;;5089654;28;19909;-75
2022/04/06 08:47:51;;;;;;;;;;;12.60;99.90;;;;;;5091916;28;19904;-75
2022/04/06 08:50:20;;;;;;;;;;;12.70;99.90;;;;;;5088483;28;19915;-75
2022/04/06 08:52:46;;;;;;;;;;;12.90;99.90;;;;;;5088531;28;20369;-75
2022/04/06 08:55:13;;;;;;;;;;;13.00;99.90;;;;;;5088409;28;19947;-75
2022/04/06 08:57:40;;;;;;;;;;;13.20;99.90;;;;;;5088194;28;19914;-75
2022/04/06 09:00:07;;;;;;;;;;;13.30;99.90;;;;;;5090870;28;19916;-75
2022/04/06 09:02:33;;;;;;;;;;;13.40;99.90;;;;;;5089767;28;19904;-75
2022/04/06 09:05:01;;;;;;;;;;;13.50;99.90;;;;;;5088669;28;19908;-75
2022/04/06 09:07:28;;;;;;;;;;;13.70;99.90;;;;;;5088607;28;19915;-75
2022/04/06 09:09:55;;;;;;;;;;;13.80;99.90;;;;;;5088550;28;19978;-75
2022/04/06 09:12:22;;;;;;;;;;;13.80;99.90;;;;;;5089784;28;19970;-75
2022/04/06 09:14:48;;;;;;;;;;;13.80;99.90;;;;;;5090672;28;20368;-75
2022/04/06 09:17:19;;;;;;;;;;;13.90;99.90;;;;;;5088513;28;19915;-75
2022/04/06 09:19:46;;;;;;;;;;;14.00;99.90;;;;;;5088173;28;19916;-74
2022/04/06 09:22:12;;;;;;;;;;;14.10;99.90;;;;;;5088147;28;19904;-75
2022/04/06 09:24:37;;;;;;;;;;;14.10;99.90;;;;;;5088248;28;19915;-75
2022/04/06 09:27:04;;;;;;;;;;;14.20;99.90;;;;;;5094128;28;19904;-75
2022/04/06 09:29:30;;;;;;;;;;;14.20;99.90;;;;;;5092909;28;20007;-75
2022/04/06 09:32:04;;;;;;;;;;;14.20;99.90;;;;;;5092014;28;19943;-75
2022/04/06 09:34:32;;;;;;;;;;;14.30;99.90;;;;;;5092203;28;20292;-74
2022/04/06 09:36:57;;;;;;;;;;;14.40;99.90;;;;;;5092038;28;19904;-75
2022/04/06 09:39:42;;;;;;;;;;;14.40;99.90;;;;;;5092670;28;19977;-75
2022/04/06 09:42:08;;;;;;;;;;;14.60;99.90;;;;;;5091181;28;19904;-74
2022/04/06 09:47:38;;;;;;;;;;;15.00;99.90;;;;;;5093030;28;20371;-85
2022/04/06 09:50:07;;;;;;;;;;;15.00;98.70;;;;;;5092032;28;19939;-84
2022/04/06 09:52:34;;;;;;;;;;;15.00;99.90;;;;;;5091255;28;19916;-84
2022/04/06 09:55:00;;;;;;;;;;;15.10;99.40;;;;;;5092196;28;20436;-84
2022/04/06 09:57:25;;;;;;;;;;;15.10;99.90;;;;;;5092025;28;19961;-85
2022/04/06 09:59:52;;;;;;;;;;;15.10;99.90;;;;;;5094364;28;19911;-85
2022/04/06 10:02:18;;;;;;;;;;;15.10;99.70;;;;;;5091290;28;20376;-76
2022/04/06 10:04:47;;;;;;;;;;;14.90;99.20;;;;;;5091354;28;19908;-69
2022/04/06 10:07:13;;;;;;;;;;;14.90;99.00;;;;;;5090996;28;20441;-71
2022/04/06 10:09:40;;;;;;;;;;;14.90;99.90;;;;;;5091468;28;19956;-69
2022/04/06 10:12:06;;;;;;;;;;;15.00;99.80;;;;;;5093455;28;19953;-72
2022/04/06 10:14:31;;;;;;;;;;;15.00;99.90;;;;;;5093547;28;19999;-72
2022/04/06 10:16:57;;;;;;;;;;;14.90;98.70;;;;;;5091086;28;19911;-72
2022/04/06 10:19:26;;;;;;;;;;;15.00;99.90;;;;;;5091248;28;19916;-72
2022/04/06 10:21:55;;;;;;;;;;;15.00;99.90;;;;;;5091277;28;20280;-72
2022/04/06 10:24:21;;;;;;;;;;;14.90;99.90;;;;;;5091982;28;19922;-72
2022/04/06 10:26:46;;;;;;;;;;;14.80;99.10;;;;;;5093212;28;19904;-72
2022/04/06 10:29:12;;;;;;;;;;;14.80;99.20;;;;;;5090889;28;19958;-76
2022/04/06 10:31:38;;;;;;;;;;;14.90;99.00;;;;;;5090619;28;19908;-71
2022/04/06 10:34:25;;;;;;;;;;;14.90;98.60;;;;;;5090966;28;20348;-71
2022/04/06 10:37:20;;;;;;;;;;;15.00;98.90;;;;;;5090336;28;19915;-74
2022/04/06 10:39:53;;;;;;;;;;;15.10;99.90;;;;;;5059210;28;20313;-70
2022/04/06 10:42:28;;;;;;;;;;;15.20;99.20;;;;;;5092272;28;19904;-71
2022/04/06 10:44:53;;;;;;;;;;;15.20;99.90;;;;;;5093487;28;19914;-71
2022/04/06 10:47:20;;;;;;;;;;;15.30;98.30;;;;;;5090486;28;19907;-71
2022/04/06 10:50:06;;;;;;;;;;;15.50;97.80;;;;;;5090452;28;19908;-71
2022/04/06 10:52:31;;;;;;;;;;;15.50;97.60;;;;;;5089247;28;19934;-71
2022/04/06 10:55:06;;;;;;;;;;;15.60;97.20;;;;;;5089268;28;20030;-71
2022/04/06 10:57:52;;;;;;;;;;;15.70;97.90;;;;;;5074960;28;19903;-71
2022/04/06 11:00:18;;;;;;;;;;;15.80;98.30;;;;;;5091768;28;19963;-71
2022/04/06 11:02:49;;;;;;;;;;;15.90;97.40;;;;;;5092018;28;20016;-70
2022/04/06 11:05:45;;;;;;;;;;;15.80;96.80;;;;;;5089514;28;19920;-71
2022/04/06 11:11:37;;;;;;;;;;;15.70;97.60;;;;;;5048643;28;19908;-71
2022/04/06 11:14:03;;;;;;;;;;;15.50;97.10;;;;;;5049080;28;19987;-70
2022/04/06 11:16:39;;;;;;;;;;;15.10;97.90;;;;;;5048853;28;19919;-70
2022/04/06 11:19:04;;;;;;;;;;;15.00;98.10;;;;;;5033229;28;19917;-73
2022/04/06 11:21:31;;;;;;;;;;;14.90;98.10;;;;;;5048950;28;20068;-72
2022/04/06 11:23:57;;;;;;;;;;;15.00;98.70;;;;;;5045798;28;19905;-72
2022/04/06 11:26:23;;;;;;;;;;;14.80;99.90;;;;;;5049394;28;19916;-71
2022/04/06 11:28:56;;;;;;;;;;;14.80;99.90;;;;;;5048809;28;19909;-73
2022/04/06 11:31:21;;;;;;;;;;;14.80;99.90;;;;;;5042290;28;19994;-73
2022/04/06 11:33:47;;;;;;;;;;;14.90;99.90;;;;;;5040199;28;19912;-72
2022/04/06 11:36:13;;;;;;;;;;;14.90;99.90;;;;;;5048437;28;19948;-72
2022/04/06 11:38:38;;;;;;;;;;;15.00;99.90;;;;;;5050838;28;20282;-72
2022/04/06 11:41:04;;;;;;;;;;;14.90;99.90;;;;;;5044334;28;19947;-73
2022/04/06 11:43:29;;;;;;;;;;;14.90;99.90;;;;;;5052236;28;19908;-72
2022/04/06 11:45:57;;;;;;;;;;;14.90;99.90;;;;;;5049082;28;20371;-72
2022/04/06 11:48:23;;;;;;;;;;;14.90;99.90;;;;;;5059460;28;20015;-72
2022/04/06 11:50:49;;;;;;;;;;;15.00;99.90;;;;;;5091110;28;20070;-72
2022/04/06 11:53:17;;;;;;;;;;;14.90;99.90;;;;;;5089906;28;20383;-73
2022/04/06 11:55:48;;;;;;;;;;;15.00;99.90;;;;;;5087689;28;19911;-72
2022/04/06 11:58:29;;;;;;;;;;;15.10;99.90;;;;;;5090148;28;20014;-72
2022/04/06 12:01:27;;;;;;;;;;;15.10;99.90;;;;;;5088306;28;19933;-70
2022/04/06 12:03:58;;;;;;;;;;;15.10;99.80;;;;;;5075873;28;19953;-71
2022/04/06 12:06:31;;;;;;;;;;;15.00;99.90;;;;;;5085763;28;19919;-71
2022/04/06 12:08:57;;;;;;;;;;;15.10;99.90;;;;;;5094148;28;19915;-71
2022/04/06 12:11:22;;;;;;;;;;;15.30;99.90;;;;;;5102786;28;19904;-72
2022/04/06 12:13:48;;;;;;;;;;;15.00;99.90;;;;;;5099476;28;19907;-71
2022/04/06 12:16:14;;;;;;;;;;;14.80;99.90;;;;;;5090378;28;19994;-72
2022/04/06 12:18:40;;;;;;;;;;;14.70;99.90;;;;;;5085964;28;19931;-72
2022/04/06 12:21:25;;;;;;;;;;;14.80;99.90;;;;;;5084692;28;19908;-72
2022/04/06 12:23:54;;;;;;;;;;;14.90;99.90;;;;;;5088630;28;20003;-72
2022/04/06 12:26:20;;;;;;;;;;;15.00;99.90;;;;;;5086870;28;19918;-71
2022/04/06 12:28:50;;;;;;;;;;;15.10;99.90;;;;;;5084668;28;19950;-72
2022/04/06 12:31:15;;;;;;;;;;;15.10;99.90;;;;;;5099766;27;19914;-72
2022/04/06 12:33:49;;;;;;;;;;;15.00;99.90;;;;;;5081759;28;20288;-72
2022/04/06 12:36:14;;;;;;;;;;;15.10;99.90;;;;;;5081815;28;19969;-72
2022/04/06 12:38:41;;;;;;;;;;;15.10;99.90;;;;;;5089442;28;19989;-72
2022/04/06 12:41:07;;;;;;;;;;;15.10;99.90;;;;;;5087751;28;20249;-73
2022/04/06 12:43:37;;;;;;;;;;;15.10;99.90;;;;;;5087539;28;20283;-72
2022/04/06 12:46:03;;;;;;;;;;;15.30;99.90;;;;;;5082621;28;19903;-72
2022/04/06 12:48:28;;;;;;;;;;;15.60;99.60;;;;;;5067932;28;20341;-73
2022/04/06 12:50:55;;;;;;;;;;;15.50;99.30;;;;;;5086105;28;20428;-72
2022/04/06 12:53:21;;;;;;;;;;;15.80;99.90;;;;;;5083091;28;19920;-72
2022/04/06 12:55:46;;;;;;;;;;;16.30;99.00;;;;;;5083007;28;20265;-72
2022/04/06 12:58:19;;;;;;;;;;;16.80;98.10;;;;;;5085127;28;19922;-72
2022/04/06 13:00:45;;;;;;;;;;;17.10;96.30;;;;;;5084279;28;19935;-73
2022/04/06 13:03:11;;;;;;;;;;;17.10;95.90;;;;;;5090566;28;19904;-73
2022/04/06 13:05:36;;;;;;;;;;;17.30;95.10;;;;;;5088256;28;20372;-72
2022/04/06 13:08:02;;;;;;;;;;;17.50;94.90;;;;;;5087529;28;19907;-72
2022/04/06 13:10:29;;;;;;;;;;;17.50;94.00;;;;;;5087005;28;19908;-72
2022/04/06 13:12:55;;;;;;;;;;;17.20;94.00;;;;;;5087566;28;19912;-73
2022/04/06 13:15:21;;;;;;;;;;;17.40;94.70;;;;;;5088653;28;19978;-72
2022/04/06 13:17:47;;;;;;;;;;;17.60;94.90;;;;;;5089959;28;19908;-72
2022/04/06 13:20:17;;;;;;;;;;;17.60;94.40;;;;;;5088409;28;19931;-72
2022/04/06 13:22:43;;;;;;;;;;;17.60;93.70;;;;;;5088030;28;20289;-73
2022/04/06 13:25:10;;;;;;;;;;;17.50;94.00;;;;;;5087182;28;19908;-73
2022/04/06 13:27:36;;;;;;;;;;;17.70;94.30;;;;;;5086918;28;20247;-73
2022/04/06 13:30:02;;;;;;;;;;;17.60;94.40;;;;;;5089838;28;20227;-73
2022/04/06 13:32:28;;;;;;;;;;;17.80;93.60;;;;;;5086969;28;19904;-73
2022/04/06 13:34:53;;;;;;;;;;;18.10;93.50;;;;;;5085855;28;19935;-73
2022/04/06 13:37:19;;;;;;;;;;;18.20;92.10;;;;;;5087214;28;19908;-73
2022/04/06 13:39:47;;;;;;;;;;;17.90;92.70;;;;;;5087295;28;19962;-73
2022/04/06 13:42:16;;;;;;;;;;;17.70;92.40;;;;;;5088510;28;19993;-73
2022/04/06 13:44:43;;;;;;;;;;;17.70;92.70;;;;;;5087863;28;19912;-73
2022/04/06 13:47:08;;;;;;;;;;;18.10;92.60;;;;;;5086431;28;19904;-73
2022/04/06 13:49:34;;;;;;;;;;;18.10;91.30;;;;;;5068153;28;19918;-72
2022/04/06 13:52:02;;;;;;;;;;;18.00;91.90;;;;;;5086892;28;19916;-73
2022/04/06 13:54:27;;;;;;;;;;;18.30;92.30;;;;;;5086872;28;20296;-72
2022/04/06 13:56:53;;;;;;;;;;;18.90;91.00;;;;;;5088716;28;19908;-73
2022/04/06 13:59:19;;;;;;;;;;;19.30;88.90;;;;;;5085311;28;20391;-72
2022/04/06 14:01:45;;;;;;;;;;;19.30;86.70;;;;;;5089443;28;19915;-72
2022/04/06 14:04:11;;;;;;;;;;;19.10;88.60;;;;;;5089017;28;20400;-72
2022/04/06 14:06:37;;;;;;;;;;;19.00;88.90;;;;;;5091387;28;19916;-73
2022/04/06 14:09:04;;;;;;;;;;;18.90;89.10;;;;;;5093404;28;20320;-73
2022/04/06 14:11:30;;;;;;;;;;;18.40;89.80;;;;;;5083604;28;20301;-73
2022/04/06 14:13:55;;;;;;;;;;;18.30;89.20;;;;;;5094575;28;19912;-72
2022/04/06 14:16:22;;;;;;;;;;;18.40;89.60;;;;;;5100589;28;20064;-73
2022/04/06 14:18:49;;;;;;;;;;;20.60;86.50;;;;;;5089720;28;19924;-72
2022/04/06 14:21:15;;;;;;;;;;;22.50;75.00;;;;;;5091374;28;20361;-72
2022/04/06 14:23:41;;;;;;;;;;;22.40;75.20;;;;;;5092617;28;19911;-73
2022/04/06 14:26:08;;;;;;;;;;;22.40;72.20;;;;;;5091260;28;20418;-72